Roslyn, Pennsylvania
Current Conditions -  °F | °C
As of 2:54 AM on Sunday 26 Oct 2014 (Local Time) from KPNE Reporting Station
Overcast Overcast  
Wind Chill: 63°   Ceiling: 9000
Heat Index: 63°   Visibility: 10mi
Dew Point: 45°   Wind: 7mph
Humidity: 52%   Direction: 270°W
Pressure: 29.61"   Gusts: NA
Location:  40.1251°N, 75.1282°W
Report Text: KPNE 260654Z 27006KT 10SM OVC090 17/07 A2961 RMK AO2 SLP027 T01720072
Loading
Personal Weather Stations






























Interactive Weather Map
Tropical Storm Tracking
New forecast layout! Learn more

10-Day Weather Forecast

Advertisements
Track Severe Weather on mobile